sensor_id;sensor_type;location;lat;lon;timestamp;P1;P2;P0
26185;PMS7003;20067;48.764;9.176;2023-04-08T00:01:04;23.75;19.25;10.00
26185;PMS7003;20067;48.764;9.176;2023-04-08T00:03:30;24.25;21.75;10.25
26185;PMS7003;20067;48.764;9.176;2023-04-08T00:05:56;22.00;17.00;8.50
26185;PMS7003;20067;48.764;9.176;2023-04-08T00:08:22;26.75;20.00;10.00
26185;PMS7003;20067;48.764;9.176;2023-04-08T00:10:47;21.00;16.25;9.00
26185;PMS7003;20067;48.764;9.176;2023-04-08T00:13:13;19.25;18.00;9.50
26185;PMS7003;20067;48.764;9.176;2023-04-08T00:15:39;21.25;19.25;10.00
26185;PMS7003;20067;48.764;9.176;2023-04-08T00:18:05;17.50;16.00;9.75
26185;PMS7003;20067;48.764;9.176;2023-04-08T00:20:32;18.50;18.00;8.50
26185;PMS7003;20067;48.764;9.176;2023-04-08T00:22:57;21.75;18.25;9.00
26185;PMS7003;20067;48.764;9.176;2023-04-08T00:25:23;25.50;21.00;11.50
26185;PMS7003;20067;48.764;9.176;2023-04-08T00:27:49;22.50;18.25;9.25
26185;PMS7003;20067;48.764;9.176;2023-04-08T00:30:15;22.00;19.25;12.00
26185;PMS7003;20067;48.764;9.176;2023-04-08T00:32:41;25.00;21.00;12.00
26185;PMS7003;20067;48.764;9.176;2023-04-08T00:35:06;19.50;16.25;10.00
26185;PMS7003;20067;48.764;9.176;2023-04-08T00:37:32;22.75;17.25;9.75
26185;PMS7003;20067;48.764;9.176;2023-04-08T00:39:59;23.75;21.25;11.25
26185;PMS7003;20067;48.764;9.176;2023-04-08T00:42:24;18.00;17.00;9.75
26185;PMS7003;20067;48.764;9.176;2023-04-08T00:44:50;21.50;18.50;10.00
26185;PMS7003;20067;48.764;9.176;2023-04-08T00:47:16;21.00;18.00;10.25
26185;PMS7003;20067;48.764;9.176;2023-04-08T00:49:42;20.00;18.25;10.75
26185;PMS7003;20067;48.764;9.176;2023-04-08T00:52:08;26.25;19.50;10.50
26185;PMS7003;20067;48.764;9.176;2023-04-08T00:54:34;21.75;17.75;9.00
26185;PMS7003;20067;48.764;9.176;2023-04-08T00:57:01;19.00;19.00;11.25
26185;PMS7003;20067;48.764;9.176;2023-04-08T00:59:28;27.75;23.50;10.00
26185;PMS7003;20067;48.764;9.176;2023-04-08T01:04:43;19.25;17.75;10.25
26185;PMS7003;20067;48.764;9.176;2023-04-08T01:10:01;17.75;17.75;9.50
26185;PMS7003;20067;48.764;9.176;2023-04-08T01:12:40;21.75;20.75;11.00
26185;PMS7003;20067;48.764;9.176;2023-04-08T01:15:12;24.50;23.00;11.25
26185;PMS7003;20067;48.764;9.176;2023-04-08T01:17:38;27.75;21.00;12.00
26185;PMS7003;20067;48.764;9.176;2023-04-08T01:20:05;17.50;16.75;9.25
26185;PMS7003;20067;48.764;9.176;2023-04-08T01:22:57;21.75;20.25;11.00
26185;PMS7003;20067;48.764;9.176;2023-04-08T01:25:54;18.00;18.00;10.00
26185;PMS7003;20067;48.764;9.176;2023-04-08T01:28:21;18.50;17.00;9.50
26185;PMS7003;20067;48.764;9.176;2023-04-08T01:30:49;22.00;20.25;10.00
26185;PMS7003;20067;48.764;9.176;2023-04-08T01:33:16;21.75;19.50;10.00
26185;PMS7003;20067;48.764;9.176;2023-04-08T01:35:43;20.50;18.00;9.00
26185;PMS7003;20067;48.764;9.176;2023-04-08T01:38:17;25.25;21.00;11.50
26185;PMS7003;20067;48.764;9.176;2023-04-08T01:40:45;20.75;16.75;7.00
26185;PMS7003;20067;48.764;9.176;2023-04-08T01:43:12;25.25;22.25;12.00
26185;PMS7003;20067;48.764;9.176;2023-04-08T01:45:41;16.75;15.75;7.50
26185;PMS7003;20067;48.764;9.176;2023-04-08T01:48:11;20.50;18.25;9.00
26185;PMS7003;20067;48.764;9.176;2023-04-08T01:50:39;23.50;17.00;9.00
26185;PMS7003;20067;48.764;9.176;2023-04-08T01:53:07;21.00;18.00;10.00
26185;PMS7003;20067;48.764;9.176;2023-04-08T01:55:34;18.75;18.00;9.00
26185;PMS7003;20067;48.764;9.176;2023-04-08T01:58:02;23.75;16.75;8.50
26185;PMS7003;20067;48.764;9.176;2023-04-08T02:00:31;22.25;16.00;9.75
26185;PMS7003;20067;48.764;9.176;2023-04-08T02:02:59;20.25;17.75;10.00
26185;PMS7003;20067;48.764;9.176;2023-04-08T02:05:26;22.00;17.75;9.00
26185;PMS7003;20067;48.764;9.176;2023-04-08T02:07:52;21.50;20.25;10.75
26185;PMS7003;20067;48.764;9.176;2023-04-08T02:10:18;23.25;19.75;9.50
26185;PMS7003;20067;48.764;9.176;2023-04-08T02:12:43;21.00;15.00;9.00
26185;PMS7003;20067;48.764;9.176;2023-04-08T02:15:11;26.50;20.75;9.00
26185;PMS7003;20067;48.764;9.176;2023-04-08T02:20:14;20.50;18.00;10.25
26185;PMS7003;20067;48.764;9.176;2023-04-08T02:25:46;19.50;17.50;9.25
26185;PMS7003;20067;48.764;9.176;2023-04-08T02:28:13;20.00;20.00;9.00
26185;PMS7003;20067;48.764;9.176;2023-04-08T02:30:42;21.25;16.25;7.00
26185;PMS7003;20067;48.764;9.176;2023-04-08T02:33:12;19.75;19.75;10.00
26185;PMS7003;20067;48.764;9.176;2023-04-08T02:35:39;22.75;21.25;9.00
26185;PMS7003;20067;48.764;9.176;2023-04-08T02:38:06;28.00;20.75;11.50
26185;PMS7003;20067;48.764;9.176;2023-04-08T02:40:33;23.00;20.75;11.00
26185;PMS7003;20067;48.764;9.176;2023-04-08T02:43:02;23.50;20.50;11.50
26185;PMS7003;20067;48.764;9.176;2023-04-08T02:45:32;25.25;22.75;13.00
26185;PMS7003;20067;48.764;9.176;2023-04-08T02:48:03;23.75;21.25;12.00
26185;PMS7003;20067;48.764;9.176;2023-04-08T02:50:30;23.00;22.25;12.00
26185;PMS7003;20067;48.764;9.176;2023-04-08T02:52:56;23.00;21.50;10.50
26185;PMS7003;20067;48.764;9.176;2023-04-08T02:55:22;25.75;20.75;10.00
26185;PMS7003;20067;48.764;9.176;2023-04-08T02:57:48;28.50;22.50;9.25
26185;PMS7003;20067;48.764;9.176;2023-04-08T03:00:14;27.00;22.25;11.75
26185;PMS7003;20067;48.764;9.176;2023-04-08T03:02:40;22.00;22.00;12.00
26185;PMS7003;20067;48.764;9.176;2023-04-08T03:05:06;19.00;19.00;11.00
26185;PMS7003;20067;48.764;9.176;2023-04-08T03:07:32;27.00;23.00;12.25
26185;PMS7003;20067;48.764;9.176;2023-04-08T03:09:58;28.75;23.00;12.00
26185;PMS7003;20067;48.764;9.176;2023-04-08T03:12:23;25.00;20.25;9.25
26185;PMS7003;20067;48.764;9.176;2023-04-08T03:14:51;22.75;18.00;11.00
26185;PMS7003;20067;48.764;9.176;2023-04-08T03:17:17;19.50;17.00;9.75
26185;PMS7003;20067;48.764;9.176;2023-04-08T03:19:42;24.00;21.00;12.75
26185;PMS7003;20067;48.764;9.176;2023-04-08T03:22:08;25.00;22.00;9.50
26185;PMS7003;20067;48.764;9.176;2023-04-08T03:24:34;22.50;20.50;9.50
26185;PMS7003;20067;48.764;9.176;2023-04-08T03:27:00;22.75;20.00;12.00
26185;PMS7003;20067;48.764;9.176;2023-04-08T03:29:25;23.75;21.00;10.00
26185;PMS7003;20067;48.764;9.176;2023-04-08T03:31:51;25.75;22.75;10.00
26185;PMS7003;20067;48.764;9.176;2023-04-08T03:34:17;34.00;21.00;10.75
26185;PMS7003;20067;48.764;9.176;2023-04-08T03:36:43;24.50;20.50;10.00
26185;PMS7003;20067;48.764;9.176;2023-04-08T03:39:08;26.50;20.75;11.75
26185;PMS7003;20067;48.764;9.176;2023-04-08T03:41:34;22.50;20.50;9.00
26185;PMS7003;20067;48.764;9.176;2023-04-08T03:44:00;27.25;22.00;11.50
26185;PMS7003;20067;48.764;9.176;2023-04-08T03:46:26;22.75;20.00;9.75
26185;PMS7003;20067;48.764;9.176;2023-04-08T03:48:51;24.50;20.50;11.50
26185;PMS7003;20067;48.764;9.176;2023-04-08T03:51:17;23.00;20.25;10.00
26185;PMS7003;20067;48.764;9.176;2023-04-08T03:53:43;27.75;19.25;10.50
26185;PMS7003;20067;48.764;9.176;2023-04-08T03:56:08;25.50;20.25;10.00
26185;PMS7003;20067;48.764;9.176;2023-04-08T03:58:34;25.00;15.00;7.50
26185;PMS7003;20067;48.764;9.176;2023-04-08T04:00:59;21.75;20.25;9.00
26185;PMS7003;20067;48.764;9.176;2023-04-08T04:03:25;26.50;23.25;12.00
26185;PMS7003;20067;48.764;9.176;2023-04-08T04:05:51;20.00;15.50;9.00
26185;PMS7003;20067;48.764;9.176;2023-04-08T04:08:16;23.75;19.25;11.00
26185;PMS7003;20067;48.764;9.176;2023-04-08T04:10:42;20.75;19.00;9.25
26185;PMS7003;20067;48.764;9.176;2023-04-08T04:13:08;23.50;20.25;10.25
26185;PMS7003;20067;48.764;9.176;2023-04-08T04:15:37;23.25;20.75;10.00
26185;PMS7003;20067;48.764;9.176;2023-04-08T04:18:03;21.75;18.75;9.00
26185;PMS7003;20067;48.764;9.176;2023-04-08T04:20:29;25.50;17.00;7.00
26185;PMS7003;20067;48.764;9.176;2023-04-08T04:22:55;25.25;18.75;11.50
26185;PMS7003;20067;48.764;9.176;2023-04-08T04:25:21;22.50;22.00;11.00
26185;PMS7003;20067;48.764;9.176;2023-04-08T04:27:47;22.00;19.75;9.25
26185;PMS7003;20067;48.764;9.176;2023-04-08T04:30:12;22.00;21.00;11.00
26185;PMS7003;20067;48.764;9.176;2023-04-08T04:32:40;24.00;19.00;9.75
26185;PMS7003;20067;48.764;9.176;2023-04-08T04:35:07;22.75;21.00;11.25
26185;PMS7003;20067;48.764;9.176;2023-04-08T04:37:34;24.50;22.00;10.25
26185;PMS7003;20067;48.764;9.176;2023-04-08T04:39:59;24.75;22.25;9.50
26185;PMS7003;20067;48.764;9.176;2023-04-08T04:42:25;31.00;22.25;13.50
26185;PMS7003;20067;48.764;9.176;2023-04-08T04:44:50;25.00;20.00;12.00
26185;PMS7003;20067;48.764;9.176;2023-04-08T04:47:16;26.75;22.75;11.00
26185;PMS7003;20067;48.764;9.176;2023-04-08T04:49:42;31.00;25.50;14.25
26185;PMS7003;20067;48.764;9.176;2023-04-08T04:52:09;24.75;22.25;11.00
26185;PMS7003;20067;48.764;9.176;2023-04-08T04:54:35;27.00;19.50;9.75
26185;PMS7003;20067;48.764;9.176;2023-04-08T04:57:00;23.25;22.75;11.25
26185;PMS7003;20067;48.764;9.176;2023-04-08T04:59:26;27.25;23.00;10.25
26185;PMS7003;20067;48.764;9.176;2023-04-08T05:01:52;30.00;22.50;11.00
26185;PMS7003;20067;48.764;9.176;2023-04-08T05:04:17;22.50;19.25;9.00
26185;PMS7003;20067;48.764;9.176;2023-04-08T05:06:43;23.50;20.00;11.00
26185;PMS7003;20067;48.764;9.176;2023-04-08T05:09:08;30.75;24.75;14.00
26185;PMS7003;20067;48.764;9.176;2023-04-08T05:11:34;26.50;22.75;13.75
26185;PMS7003;20067;48.764;9.176;2023-04-08T05:14:00;23.25;22.75;12.75
26185;PMS7003;20067;48.764;9.176;2023-04-08T05:16:25;27.50;25.25;14.00
26185;PMS7003;20067;48.764;9.176;2023-04-08T05:18:51;25.00;21.00;12.00
26185;PMS7003;20067;48.764;9.176;2023-04-08T05:21:16;24.50;22.25;11.75
26185;PMS7003;20067;48.764;9.176;2023-04-08T05:23:42;24.75;23.00;12.25
26185;PMS7003;20067;48.764;9.176;2023-04-08T05:26:08;26.75;24.50;13.25
26185;PMS7003;20067;48.764;9.176;2023-04-08T05:28:34;25.00;21.25;11.25
26185;PMS7003;20067;48.764;9.176;2023-04-08T05:31:00;26.25;24.75;14.00
26185;PMS7003;20067;48.764;9.176;2023-04-08T05:33:26;28.00;24.50;14.25
26185;PMS7003;20067;48.764;9.176;2023-04-08T05:35:51;38.75;32.25;17.75
26185;PMS7003;20067;48.764;9.176;2023-04-08T05:38:17;36.25;28.50;16.00
26185;PMS7003;20067;48.764;9.176;2023-04-08T05:40:43;25.25;22.75;12.00
26185;PMS7003;20067;48.764;9.176;2023-04-08T05:43:08;31.50;27.75;17.00
26185;PMS7003;20067;48.764;9.176;2023-04-08T05:45:34;27.50;21.25;12.00
26185;PMS7003;20067;48.764;9.176;2023-04-08T05:47:59;31.25;25.75;14.50
26185;PMS7003;20067;48.764;9.176;2023-04-08T05:50:25;31.50;28.75;15.50
26185;PMS7003;20067;48.764;9.176;2023-04-08T05:52:51;28.50;23.00;14.00
26185;PMS7003;20067;48.764;9.176;2023-04-08T05:55:16;27.00;24.25;15.25
26185;PMS7003;20067;48.764;9.176;2023-04-08T05:57:42;26.25;25.25;12.00
26185;PMS7003;20067;48.764;9.176;2023-04-08T06:00:08;23.00;22.50;12.75
26185;PMS7003;20067;48.764;9.176;2023-04-08T06:02:35;27.25;22.50;14.25
26185;PMS7003;20067;48.764;9.176;2023-04-08T06:05:00;32.50;25.50;14.25
26185;PMS7003;20067;48.764;9.176;2023-04-08T06:07:27;29.00;24.25;12.25
26185;PMS7003;20067;48.764;9.176;2023-04-08T06:09:53;31.00;25.50;14.00
26185;PMS7003;20067;48.764;9.176;2023-04-08T06:12:19;36.00;32.25;15.50
26185;PMS7003;20067;48.764;9.176;2023-04-08T06:14:45;31.25;25.50;14.25
26185;PMS7003;20067;48.764;9.176;2023-04-08T06:17:11;31.50;26.50;14.50
26185;PMS7003;20067;48.764;9.176;2023-04-08T06:19:36;28.00;25.75;13.00
26185;PMS7003;20067;48.764;9.176;2023-04-08T06:22:02;23.00;22.00;12.00
26185;PMS7003;20067;48.764;9.176;2023-04-08T06:24:27;21.00;21.00;10.75
26185;PMS7003;20067;48.764;9.176;2023-04-08T06:26:53;25.25;21.75;13.25
26185;PMS7003;20067;48.764;9.176;2023-04-08T06:29:20;24.25;23.00;10.00
26185;PMS7003;20067;48.764;9.176;2023-04-08T06:31:47;31.75;27.25;12.25
26185;PMS7003;20067;48.764;9.176;2023-04-08T06:34:13;21.00;20.50;11.25
26185;PMS7003;20067;48.764;9.176;2023-04-08T06:36:38;31.50;25.25;14.50
26185;PMS7003;20067;48.764;9.176;2023-04-08T06:39:04;23.25;20.75;11.50
26185;PMS7003;20067;48.764;9.176;2023-04-08T06:41:30;22.00;20.25;9.00
26185;PMS7003;20067;48.764;9.176;2023-04-08T06:43:56;29.00;24.25;14.25
26185;PMS7003;20067;48.764;9.176;2023-04-08T06:46:21;30.00;21.50;12.00
26185;PMS7003;20067;48.764;9.176;2023-04-08T06:48:47;30.50;24.25;12.00
26185;PMS7003;20067;48.764;9.176;2023-04-08T06:51:13;28.25;21.00;11.75
26185;PMS7003;20067;48.764;9.176;2023-04-08T06:53:38;24.25;22.75;12.00
26185;PMS7003;20067;48.764;9.176;2023-04-08T06:56:04;28.25;22.75;10.50
26185;PMS7003;20067;48.764;9.176;2023-04-08T06:58:30;24.25;21.00;10.00
26185;PMS7003;20067;48.764;9.176;2023-04-08T07:00:56;19.75;18.00;8.50
26185;PMS7003;20067;48.764;9.176;2023-04-08T07:03:22;21.00;18.50;12.00
26185;PMS7003;20067;48.764;9.176;2023-04-08T07:05:48;26.50;23.50;11.50
26185;PMS7003;20067;48.764;9.176;2023-04-08T07:08:14;24.50;21.75;12.00
26185;PMS7003;20067;48.764;9.176;2023-04-08T07:10:42;29.50;23.50;13.75
26185;PMS7003;20067;48.764;9.176;2023-04-08T07:13:08;25.00;21.25;10.00
26185;PMS7003;20067;48.764;9.176;2023-04-08T07:15:34;25.75;20.25;10.00
26185;PMS7003;20067;48.764;9.176;2023-04-08T07:18:00;24.25;20.50;10.50
26185;PMS7003;20067;48.764;9.176;2023-04-08T07:20:26;20.25;18.75;12.00
26185;PMS7003;20067;48.764;9.176;2023-04-08T07:22:52;22.25;21.00;10.00
26185;PMS7003;20067;48.764;9.176;2023-04-08T07:25:18;23.25;21.75;12.75
26185;PMS7003;20067;48.764;9.176;2023-04-08T07:27:43;31.50;21.00;12.00
26185;PMS7003;20067;48.764;9.176;2023-04-08T07:30:09;30.50;24.00;12.00
26185;PMS7003;20067;48.764;9.176;2023-04-08T07:32:35;21.00;18.50;10.00
26185;PMS7003;20067;48.764;9.176;2023-04-08T07:35:01;23.50;20.50;12.00
26185;PMS7003;20067;48.764;9.176;2023-04-08T07:37:27;27.00;21.75;11.00
26185;PMS7003;20067;48.764;9.176;2023-04-08T07:39:53;25.50;21.50;11.75
26185;PMS7003;20067;48.764;9.176;2023-04-08T07:42:18;28.50;22.50;11.50
26185;PMS7003;20067;48.764;9.176;2023-04-08T07:44:44;23.00;23.00;12.75
26185;PMS7003;20067;48.764;9.176;2023-04-08T07:47:10;23.50;21.50;11.50
26185;PMS7003;20067;48.764;9.176;2023-04-08T07:49:36;25.25;20.25;10.00
26185;PMS7003;20067;48.764;9.176;2023-04-08T07:52:03;27.00;23.75;12.00
26185;PMS7003;20067;48.764;9.176;2023-04-08T07:54:32;30.00;21.00;12.00
26185;PMS7003;20067;48.764;9.176;2023-04-08T07:57:00;21.50;20.50;11.00
26185;PMS7003;20067;48.764;9.176;2023-04-08T07:59:26;25.00;23.00;11.25
26185;PMS7003;20067;48.764;9.176;2023-04-08T08:01:53;24.50;18.00;10.00
26185;PMS7003;20067;48.764;9.176;2023-04-08T08:04:18;26.50;21.25;12.00
26185;PMS7003;20067;48.764;9.176;2023-04-08T08:06:45;22.50;21.00;12.00
26185;PMS7003;20067;48.764;9.176;2023-04-08T08:09:11;26.50;22.25;12.00
26185;PMS7003;20067;48.764;9.176;2023-04-08T08:11:37;25.75;21.50;12.25
26185;PMS7003;20067;48.764;9.176;2023-04-08T08:14:03;24.75;22.25;12.50
26185;PMS7003;20067;48.764;9.176;2023-04-08T08:16:29;27.75;23.50;13.00
26185;PMS7003;20067;48.764;9.176;2023-04-08T08:18:56;25.75;21.50;12.75
26185;PMS7003;20067;48.764;9.176;2023-04-08T08:21:22;25.25;23.50;12.25
26185;PMS7003;20067;48.764;9.176;2023-04-08T08:23:48;22.75;19.25;11.00
26185;PMS7003;20067;48.764;9.176;2023-04-08T08:26:15;23.75;22.00;13.00
26185;PMS7003;20067;48.764;9.176;2023-04-08T08:28:41;24.50;20.00;11.25
26185;PMS7003;20067;48.764;9.176;2023-04-08T08:31:07;25.25;24.00;13.50
26185;PMS7003;20067;48.764;9.176;2023-04-08T08:33:32;28.50;23.25;13.00
26185;PMS7003;20067;48.764;9.176;2023-04-08T08:35:58;29.50;27.00;13.00
26185;PMS7003;20067;48.764;9.176;2023-04-08T08:38:24;27.25;25.00;14.75
26185;PMS7003;20067;48.764;9.176;2023-04-08T08:40:53;28.75;26.00;13.50
26185;PMS7003;20067;48.764;9.176;2023-04-08T08:43:20;24.00;23.00;12.75
26185;PMS7003;20067;48.764;9.176;2023-04-08T08:45:46;25.50;21.25;12.25
26185;PMS7003;20067;48.764;9.176;2023-04-08T08:48:12;24.00;22.00;12.75
26185;PMS7003;20067;48.764;9.176;2023-04-08T08:50:37;27.00;25.00;14.75
26185;PMS7003;20067;48.764;9.176;2023-04-08T08:53:03;30.25;25.00;14.25
26185;PMS7003;20067;48.764;9.176;2023-04-08T08:55:29;30.50;23.25;13.00
26185;PMS7003;20067;48.764;9.176;2023-04-08T08:57:57;25.50;24.50;13.75
26185;PMS7003;20067;48.764;9.176;2023-04-08T09:00:31;33.75;26.50;14.00
26185;PMS7003;20067;48.764;9.176;2023-04-08T09:05:48;31.75;28.75;17.00
26185;PMS7003;20067;48.764;9.176;2023-04-08T09:10:49;29.00;24.00;14.75
26185;PMS7003;20067;48.764;9.176;2023-04-08T09:13:15;24.75;24.00;14.00
26185;PMS7003;20067;48.764;9.176;2023-04-08T09:18:43;26.00;24.00;14.50
26185;PMS7003;20067;48.764;9.176;2023-04-08T09:21:11;27.75;25.25;14.00
26185;PMS7003;20067;48.764;9.176;2023-04-08T09:23:48;28.75;24.50;15.00
26185;PMS7003;20067;48.764;9.176;2023-04-08T09:26:19;26.75;25.00;14.75
26185;PMS7003;20067;48.764;9.176;2023-04-08T09:29:09;29.00;23.50;15.00
26185;PMS7003;20067;48.764;9.176;2023-04-08T09:31:35;29.25;25.75;16.00
26185;PMS7003;20067;48.764;9.176;2023-04-08T09:34:13;31.00;23.50;13.50
26185;PMS7003;20067;48.764;9.176;2023-04-08T09:36:47;30.00;27.50;15.25
26185;PMS7003;20067;48.764;9.176;2023-04-08T09:39:14;33.00;27.00;14.50
26185;PMS7003;20067;48.764;9.176;2023-04-08T09:41:40;30.00;28.50;17.50
26185;PMS7003;20067;48.764;9.176;2023-04-08T09:44:08;35.25;29.75;14.75
26185;PMS7003;20067;48.764;9.176;2023-04-08T09:54:50;27.75;24.00;14.25
26185;PMS7003;20067;48.764;9.176;2023-04-08T10:00:04;27.75;24.75;15.00
26185;PMS7003;20067;48.764;9.176;2023-04-08T10:02:59;34.50;28.00;16.00
26185;PMS7003;20067;48.764;9.176;2023-04-08T10:05:28;25.00;23.75;14.25
26185;PMS7003;20067;48.764;9.176;2023-04-08T10:07:55;26.25;24.00;16.00
26185;PMS7003;20067;48.764;9.176;2023-04-08T10:10:21;30.50;26.50;17.25
26185;PMS7003;20067;48.764;9.176;2023-04-08T10:12:48;28.75;28.50;16.75
26185;PMS7003;20067;48.764;9.176;2023-04-08T10:17:53;40.75;33.00;20.50
26185;PMS7003;20067;48.764;9.176;2023-04-08T10:23:02;27.50;24.25;14.50
26185;PMS7003;20067;48.764;9.176;2023-04-08T10:27:58;30.50;27.25;16.00
26185;PMS7003;20067;48.764;9.176;2023-04-08T10:32:57;34.25;28.50;18.00
26185;PMS7003;20067;48.764;9.176;2023-04-08T10:35:30;29.50;28.50;15.00
26185;PMS7003;20067;48.764;9.176;2023-04-08T10:37:58;25.75;24.00;14.75
26185;PMS7003;20067;48.764;9.176;2023-04-08T10:40:25;30.00;29.00;18.00
26185;PMS7003;20067;48.764;9.176;2023-04-08T10:42:54;31.25;27.75;17.00
26185;PMS7003;20067;48.764;9.176;2023-04-08T10:45:20;32.00;25.50;15.25
26185;PMS7003;20067;48.764;9.176;2023-04-08T10:47:46;30.75;27.50;17.25
26185;PMS7003;20067;48.764;9.176;2023-04-08T10:50:16;29.50;27.25;17.00
26185;PMS7003;20067;48.764;9.176;2023-04-08T10:52:49;29.75;27.50;17.25
26185;PMS7003;20067;48.764;9.176;2023-04-08T10:55:22;28.00;25.00;17.00
26185;PMS7003;20067;48.764;9.176;2023-04-08T10:57:49;29.75;27.00;17.25
26185;PMS7003;20067;48.764;9.176;2023-04-08T11:00:19;34.75;29.75;18.00
26185;PMS7003;20067;48.764;9.176;2023-04-08T11:03:04;29.75;26.75;17.00
26185;PMS7003;20067;48.764;9.176;2023-04-08T11:05:32;33.00;26.25;16.25
26185;PMS7003;20067;48.764;9.176;2023-04-08T11:07:58;30.00;27.50;17.50
26185;PMS7003;20067;48.764;9.176;2023-04-08T11:10:24;30.00;26.00;15.00
26185;PMS7003;20067;48.764;9.176;2023-04-08T11:12:52;26.75;25.25;16.75
26185;PMS7003;20067;48.764;9.176;2023-04-08T11:15:18;29.25;26.25;16.25
26185;PMS7003;20067;48.764;9.176;2023-04-08T11:17:45;27.25;25.75;16.75
26185;PMS7003;20067;48.764;9.176;2023-04-08T11:20:12;29.00;24.50;16.00
26185;PMS7003;20067;48.764;9.176;2023-04-08T11:22:38;27.50;25.75;14.00
26185;PMS7003;20067;48.764;9.176;2023-04-08T11:25:04;33.50;29.50;16.50
26185;PMS7003;20067;48.764;9.176;2023-04-08T11:27:32;26.00;23.25;14.00
26185;PMS7003;20067;48.764;9.176;2023-04-08T11:29:59;29.25;26.00;17.00
26185;PMS7003;20067;48.764;9.176;2023-04-08T11:32:27;24.75;23.50;15.75
26185;PMS7003;20067;48.764;9.176;2023-04-08T11:34:53;34.25;25.75;16.25
26185;PMS7003;20067;48.764;9.176;2023-04-08T11:37:19;27.00;23.75;14.00
26185;PMS7003;20067;48.764;9.176;2023-04-08T11:39:46;29.00;26.75;16.25
26185;PMS7003;20067;48.764;9.176;2023-04-08T11:42:27;26.25;25.50;14.25
26185;PMS7003;20067;48.764;9.176;2023-04-08T11:44:56;28.75;26.75;16.25
26185;PMS7003;20067;48.764;9.176;2023-04-08T11:47:41;29.00;25.25;15.25
26185;PMS7003;20067;48.764;9.176;2023-04-08T11:50:08;34.75;27.00;18.00
26185;PMS7003;20067;48.764;9.176;2023-04-08T11:52:44;29.50;24.25;16.00
26185;PMS7003;20067;48.764;9.176;2023-04-08T11:55:12;29.00;24.50;16.25
26185;PMS7003;20067;48.764;9.176;2023-04-08T11:57:50;31.00;27.75;18.00
26185;PMS7003;20067;48.764;9.176;2023-04-08T12:00:17;30.50;30.00;16.00
26185;PMS7003;20067;48.764;9.176;2023-04-08T12:02:43;31.50;25.25;14.75
26185;PMS7003;20067;48.764;9.176;2023-04-08T12:05:10;34.25;26.75;17.50
26185;PMS7003;20067;48.764;9.176;2023-04-08T12:07:35;31.00;26.00;16.25
26185;PMS7003;20067;48.764;9.176;2023-04-08T12:10:02;35.00;28.50;17.75
26185;PMS7003;20067;48.764;9.176;2023-04-08T12:12:27;29.50;26.25;14.00
26185;PMS7003;20067;48.764;9.176;2023-04-08T12:14:53;31.75;29.50;16.50
26185;PMS7003;20067;48.764;9.176;2023-04-08T12:17:19;29.25;26.50;14.00
26185;PMS7003;20067;48.764;9.176;2023-04-08T12:19:44;28.00;25.25;14.25
26185;PMS7003;20067;48.764;9.176;2023-04-08T12:22:10;36.00;32.00;19.25
26185;PMS7003;20067;48.764;9.176;2023-04-08T12:24:36;28.00;27.00;16.75
26185;PMS7003;20067;48.764;9.176;2023-04-08T12:27:02;31.75;28.00;17.00
26185;PMS7003;20067;48.764;9.176;2023-04-08T12:29:29;28.75;27.25;17.00
26185;PMS7003;20067;48.764;9.176;2023-04-08T12:31:54;30.00;26.75;16.50
26185;PMS7003;20067;48.764;9.176;2023-04-08T12:34:20;28.25;25.00;17.25
26185;PMS7003;20067;48.764;9.176;2023-04-08T12:36:46;29.00;25.00;14.00
26185;PMS7003;20067;48.764;9.176;2023-04-08T12:39:13;32.50;30.50;17.25
26185;PMS7003;20067;48.764;9.176;2023-04-08T12:41:38;29.00;28.00;18.00
26185;PMS7003;20067;48.764;9.176;2023-04-08T12:44:04;29.25;24.25;15.00
26185;PMS7003;20067;48.764;9.176;2023-04-08T12:46:30;36.00;30.00;18.00
26185;PMS7003;20067;48.764;9.176;2023-04-08T12:48:56;28.25;26.00;16.00
26185;PMS7003;20067;48.764;9.176;2023-04-08T12:51:22;28.75;23.25;16.50
26185;PMS7003;20067;48.764;9.176;2023-04-08T12:53:48;29.25;26.25;15.75
26185;PMS7003;20067;48.764;9.176;2023-04-08T12:56:14;34.00;30.50;17.75
26185;PMS7003;20067;48.764;9.176;2023-04-08T12:58:40;30.50;27.75;15.25
26185;PMS7003;20067;48.764;9.176;2023-04-08T13:01:05;31.00;29.50;17.00
26185;PMS7003;20067;48.764;9.176;2023-04-08T13:03:31;26.75;23.00;14.00
26185;PMS7003;20067;48.764;9.176;2023-04-08T13:05:57;22.25;22.25;13.75
26185;PMS7003;20067;48.764;9.176;2023-04-08T13:08:23;29.00;24.25;15.25
26185;PMS7003;20067;48.764;9.176;2023-04-08T13:10:49;27.75;26.50;16.25
26185;PMS7003;20067;48.764;9.176;2023-04-08T13:13:15;31.75;28.00;17.25
26185;PMS7003;20067;48.764;9.176;2023-04-08T13:15:40;27.00;25.50;18.25
26185;PMS7003;20067;48.764;9.176;2023-04-08T13:18:07;30.50;26.00;16.25
26185;PMS7003;20067;48.764;9.176;2023-04-08T13:20:33;26.75;24.75;17.00
26185;PMS7003;20067;48.764;9.176;2023-04-08T13:22:59;27.75;26.00;17.00
26185;PMS7003;20067;48.764;9.176;2023-04-08T13:25:25;26.75;24.75;14.25
26185;PMS7003;20067;48.764;9.176;2023-04-08T13:27:51;31.50;28.25;16.75
26185;PMS7003;20067;48.764;9.176;2023-04-08T13:30:16;31.00;29.75;17.50
26185;PMS7003;20067;48.764;9.176;2023-04-08T13:32:42;32.00;28.00;17.00
26185;PMS7003;20067;48.764;9.176;2023-04-08T13:35:08;29.00;24.75;15.75
26185;PMS7003;20067;48.764;9.176;2023-04-08T13:37:34;29.00;26.75;15.25
26185;PMS7003;20067;48.764;9.176;2023-04-08T13:40:00;32.50;31.25;19.00
26185;PMS7003;20067;48.764;9.176;2023-04-08T13:42:26;29.50;26.00;16.75
26185;PMS7003;20067;48.764;9.176;2023-04-08T13:44:51;28.25;26.25;16.25
26185;PMS7003;20067;48.764;9.176;2023-04-08T13:47:17;32.25;29.25;17.00
26185;PMS7003;20067;48.764;9.176;2023-04-08T13:49:43;33.25;31.00;17.00
26185;PMS7003;20067;48.764;9.176;2023-04-08T13:52:08;28.00;27.00;17.00
26185;PMS7003;20067;48.764;9.176;2023-04-08T13:54:34;27.25;23.50;15.75
26185;PMS7003;20067;48.764;9.176;2023-04-08T13:57:00;33.00;25.75;16.50
26185;PMS7003;20067;48.764;9.176;2023-04-08T13:59:25;35.75;32.25;18.50
26185;PMS7003;20067;48.764;9.176;2023-04-08T14:01:51;31.50;26.75;16.00
26185;PMS7003;20067;48.764;9.176;2023-04-08T14:04:21;31.00;24.75;13.75
26185;PMS7003;20067;48.764;9.176;2023-04-08T14:06:47;33.50;29.00;16.50
26185;PMS7003;20067;48.764;9.176;2023-04-08T14:09:17;28.50;26.25;16.75
26185;PMS7003;20067;48.764;9.176;2023-04-08T14:11:43;28.00;25.75;14.00
26185;PMS7003;20067;48.764;9.176;2023-04-08T14:14:09;32.25;27.00;16.00
26185;PMS7003;20067;48.764;9.176;2023-04-08T14:16:35;30.75;27.00;18.00
26185;PMS7003;20067;48.764;9.176;2023-04-08T14:19:00;28.50;23.75;17.00
26185;PMS7003;20067;48.764;9.176;2023-04-08T14:21:27;32.00;27.75;16.75
26185;PMS7003;20067;48.764;9.176;2023-04-08T14:23:52;30.00;27.00;17.50
26185;PMS7003;20067;48.764;9.176;2023-04-08T14:26:18;28.75;25.75;14.25